createdAt,value
2023-03-06T00:02:06.333Z,99903.19
2023-03-06T00:04:33.784Z,99898.84
2023-03-06T00:07:01.209Z,99891.56
2023-03-06T00:09:28.704Z,99896.25
2023-03-06T00:11:56.173Z,99883.81
2023-03-06T00:14:25.410Z,99889.22
2023-03-06T00:16:55.004Z,99880.53
2023-03-06T00:19:22.509Z,99875.47
2023-03-06T00:21:50.013Z,99876.19
2023-03-06T00:24:17.518Z,99879.34
2023-03-06T00:26:45.048Z,99874.53
2023-03-06T00:29:12.525Z,99871.22
2023-03-06T00:31:44.621Z,99870.53
2023-03-06T00:34:12.114Z,99865.97
2023-03-06T00:36:39.590Z,99867.03
2023-03-06T00:39:07.081Z,99862.31
2023-03-06T00:41:34.582Z,99865.25
2023-03-06T00:44:02.068Z,99852.00
2023-03-06T00:46:29.515Z,99848.00
2023-03-06T00:48:58.326Z,99838.38
2023-03-06T00:51:25.761Z,99836.88
2023-03-06T00:53:53.256Z,99835.56
2023-03-06T00:56:20.822Z,99829.34
2023-03-06T00:58:48.245Z,99823.38
2023-03-06T01:01:15.811Z,99814.31
2023-03-06T01:03:43.293Z,99813.63
2023-03-06T01:06:12.106Z,99815.72
2023-03-06T01:08:39.543Z,99819.03
2023-03-06T01:11:07.214Z,99807.16
2023-03-06T01:13:34.689Z,99808.22
2023-03-06T01:16:09.263Z,99786.88
2023-03-06T01:18:36.741Z,99780.06
2023-03-06T01:21:04.631Z,99779.59
2023-03-06T01:23:33.439Z,99774.06
2023-03-06T01:26:00.969Z,99767.97
2023-03-06T01:28:28.567Z,99761.63
2023-03-06T01:30:56.169Z,99759.88
2023-03-06T01:33:23.640Z,99754.47
2023-03-06T01:35:51.121Z,99734.81
2023-03-06T01:38:18.592Z,99743.94
2023-03-06T01:40:47.357Z,99724.22
2023-03-06T01:43:26.954Z,99732.91
2023-03-06T01:46:12.965Z,99725.16
2023-03-06T01:48:40.611Z,99721.69
2023-03-06T01:51:08.160Z,99725.59
2023-03-06T01:53:35.685Z,99717.03
2023-03-06T01:56:04.813Z,99714.53
2023-03-06T01:58:32.345Z,99710.66
2023-03-06T02:00:59.834Z,99698.91
2023-03-06T02:03:28.389Z,99703.03
2023-03-06T02:05:56.683Z,99693.63
2023-03-06T02:08:24.317Z,99696.88
2023-03-06T02:10:56.514Z,99693.25
2023-03-06T02:13:25.546Z,99689.00
2023-03-06T02:15:53.016Z,99686.25
2023-03-06T02:18:20.502Z,99685.78
2023-03-06T02:20:51.325Z,99690.19
2023-03-06T02:23:22.013Z,99676.72
2023-03-06T02:25:52.110Z,99679.19
2023-03-06T02:28:21.040Z,99672.25
2023-03-06T02:30:49.710Z,99674.72
2023-03-06T02:33:18.200Z,99673.28
2023-03-06T02:35:48.080Z,99673.94
2023-03-06T02:38:16.998Z,99670.97
2023-03-06T02:40:45.196Z,99665.84
2023-03-06T02:43:16.162Z,99666.19
2023-03-06T02:45:45.386Z,99663.72
2023-03-06T02:48:13.486Z,99652.69
2023-03-06T02:50:41.370Z,99662.06
2023-03-06T02:53:09.703Z,99654.09
2023-03-06T02:55:37.237Z,99652.84
2023-03-06T02:58:05.033Z,99648.28
2023-03-06T03:00:34.792Z,99646.16
2023-03-06T03:03:02.565Z,99643.53
2023-03-06T03:05:30.077Z,99642.97
2023-03-06T03:07:57.586Z,99646.72
2023-03-06T03:10:25.349Z,99638.97
2023-03-06T03:12:52.818Z,99642.97
2023-03-06T03:15:20.413Z,99631.44
2023-03-06T03:17:49.286Z,99633.16
2023-03-06T03:20:18.263Z,99638.56
2023-03-06T03:22:48.605Z,99633.56
2023-03-06T03:25:16.128Z,99636.34
2023-03-06T03:27:43.608Z,99634.97
2023-03-06T03:30:11.818Z,99630.13
2023-03-06T03:32:39.274Z,99625.28
2023-03-06T03:35:09.913Z,99623.41
2023-03-06T03:37:37.825Z,99624.22
2023-03-06T03:40:06.630Z,99624.53
2023-03-06T03:42:34.257Z,99627.44
2023-03-06T03:45:01.741Z,99620.69
2023-03-06T03:47:29.215Z,99621.84
2023-03-06T03:49:56.719Z,99622.59
2023-03-06T03:52:25.562Z,99615.63
2023-03-06T03:54:53.016Z,99622.19
2023-03-06T03:57:20.507Z,99624.22
2023-03-06T03:59:48.017Z,99611.94
2023-03-06T04:02:15.826Z,99616.94
2023-03-06T04:04:43.442Z,99613.34
2023-03-06T04:07:10.924Z,99620.59
2023-03-06T04:09:39.730Z,99616.19
2023-03-06T04:12:07.906Z,99620.59
2023-03-06T04:14:35.436Z,99617.34
2023-03-06T04:17:02.944Z,99616.84
2023-03-06T04:19:30.427Z,99618.09
2023-03-06T04:21:57.891Z,99627.81
2023-03-06T04:24:25.398Z,99625.13
2023-03-06T04:26:54.244Z,99616.94
2023-03-06T04:29:21.720Z,99632.50
2023-03-06T04:31:49.246Z,99628.31
2023-03-06T04:34:16.770Z,99636.53
2023-03-06T04:36:45.973Z,99635.19
2023-03-06T04:39:13.505Z,99640.03
2023-03-06T04:41:41.171Z,99634.56
2023-03-06T04:44:10.483Z,99635.94
2023-03-06T04:46:38.059Z,99643.38
2023-03-06T04:49:05.512Z,99641.25
2023-03-06T04:51:33.024Z,99641.81
2023-03-06T04:54:00.493Z,99647.63
2023-03-06T04:56:27.958Z,99650.56
2023-03-06T04:58:55.340Z,99660.31
2023-03-06T05:01:24.256Z,99650.09
2023-03-06T05:03:51.890Z,99649.69
2023-03-06T05:06:19.365Z,99648.78
2023-03-06T05:08:46.842Z,99654.34
2023-03-06T05:11:14.364Z,99652.56
2023-03-06T05:13:41.816Z,99651.16
2023-03-06T05:16:09.670Z,99657.63
2023-03-06T05:18:38.606Z,99649.78
2023-03-06T05:21:06.889Z,99650.41
2023-03-06T05:23:35.258Z,99655.81
2023-03-06T05:26:05.821Z,99667.59
2023-03-06T05:28:33.310Z,99668.63
2023-03-06T05:31:03.302Z,99667.59
2023-03-06T05:33:32.192Z,99677.06
2023-03-06T05:36:01.035Z,99679.69
2023-03-06T05:38:28.978Z,99675.91
2023-03-06T05:40:56.452Z,99679.59
2023-03-06T05:43:23.943Z,99681.81
2023-03-06T05:45:52.937Z,99683.19
2023-03-06T05:48:20.464Z,99682.38
2023-03-06T05:50:55.558Z,99679.81
2023-03-06T05:53:24.383Z,99676.19
2023-03-06T05:55:56.580Z,99683.84
2023-03-06T05:58:24.053Z,99682.34
2023-03-06T06:00:52.082Z,99679.66
2023-03-06T06:03:19.959Z,99671.88
2023-03-06T06:05:47.438Z,99680.78
2023-03-06T06:08:14.898Z,99678.72
2023-03-06T06:10:43.891Z,99682.13
2023-03-06T06:13:11.422Z,99675.44
2023-03-06T06:15:39.164Z,99676.59
2023-03-06T06:18:06.666Z,99685.41
2023-03-06T06:20:34.143Z,99686.47
2023-03-06T06:23:01.627Z,99688.25
2023-03-06T06:25:29.101Z,99680.63
2023-03-06T06:27:58.019Z,99684.25
2023-03-06T06:30:25.681Z,99687.78
2023-03-06T06:32:53.191Z,99690.63
2023-03-06T06:35:20.646Z,99695.44
2023-03-06T06:37:48.177Z,99691.53
2023-03-06T06:40:15.901Z,99691.91
2023-03-06T06:42:43.470Z,99704.13
2023-03-06T06:45:12.730Z,99698.59
2023-03-06T06:47:41.591Z,99704.78
2023-03-06T06:50:12.296Z,99696.22
2023-03-06T06:52:39.793Z,99703.03
2023-03-06T06:55:07.620Z,99695.38
2023-03-06T06:57:35.112Z,99701.72
2023-03-06T07:00:02.597Z,99709.00
2023-03-06T07:02:32.138Z,99706.88
2023-03-06T07:05:04.658Z,99699.16
2023-03-06T07:07:34.158Z,99703.03
2023-03-06T07:10:01.660Z,99697.13
2023-03-06T07:12:32.344Z,99693.81
2023-03-06T07:14:59.831Z,99705.09
2023-03-06T07:17:27.332Z,99698.88
2023-03-06T07:19:56.146Z,99703.06
2023-03-06T07:22:23.600Z,99697.66
2023-03-06T07:24:51.082Z,99698.50
2023-03-06T07:27:18.743Z,99702.75
2023-03-06T07:29:46.539Z,99707.53
2023-03-06T07:32:14.060Z,99705.31
2023-03-06T07:34:41.581Z,99705.81
2023-03-06T07:37:10.440Z,99703.59
2023-03-06T07:39:37.958Z,99706.88
2023-03-06T07:42:07.456Z,99708.41
2023-03-06T07:44:37.179Z,99702.44
2023-03-06T07:47:04.995Z,99707.34
2023-03-06T07:49:32.922Z,99710.16
2023-03-06T07:52:01.734Z,99704.28
2023-03-06T07:54:32.559Z,99710.84
2023-03-06T07:57:00.143Z,99711.78
2023-03-06T07:59:27.617Z,99710.16
2023-03-06T08:01:55.812Z,99712.63
2023-03-06T08:04:23.295Z,99710.84
2023-03-06T08:06:50.723Z,99708.72
2023-03-06T08:09:18.145Z,99713.19
2023-03-06T08:11:47.075Z,99713.88
2023-03-06T08:14:14.520Z,99720.44
2023-03-06T08:16:42.097Z,99716.34
2023-03-06T08:19:09.545Z,99713.56
2023-03-06T08:21:37.043Z,99709.31
2023-03-06T08:24:05.508Z,99719.75
2023-03-06T08:26:34.067Z,99718.47
2023-03-06T08:29:03.694Z,99710.81
2023-03-06T08:31:32.749Z,99721.13
2023-03-06T08:34:01.110Z,99714.66
2023-03-06T08:36:28.942Z,99716.53
2023-03-06T08:38:58.180Z,99718.31
2023-03-06T08:41:25.795Z,99722.41
2023-03-06T08:43:54.096Z,99723.47
2023-03-06T08:46:24.667Z,99724.53
2023-03-06T08:48:52.174Z,99720.44
2023-03-06T08:51:19.701Z,99724.53
2023-03-06T08:53:47.410Z,99720.63
2023-03-06T08:56:19.153Z,99727.69
2023-03-06T08:58:47.921Z,99730.38
2023-03-06T09:01:15.964Z,99740.53
2023-03-06T09:03:44.814Z,99736.94
2023-03-06T09:06:12.749Z,99742.47
2023-03-06T09:08:42.935Z,99734.72
2023-03-06T09:11:10.383Z,99742.63
2023-03-06T09:13:37.857Z,99744.78
2023-03-06T09:16:05.628Z,99741.94
2023-03-06T09:18:33.124Z,99746.47
2023-03-06T09:21:02.033Z,99753.72
2023-03-06T09:23:29.489Z,99745.75
2023-03-06T09:25:57.599Z,99745.28
2023-03-06T09:28:25.380Z,99741.84
2023-03-06T09:30:53.198Z,99742.56
2023-03-06T09:33:21.105Z,99742.34
2023-03-06T09:35:50.912Z,99745.53
2023-03-06T09:38:19.885Z,99750.59
2023-03-06T09:40:55.903Z,99745.03
2023-03-06T09:43:26.814Z,99752.09
2023-03-06T09:45:54.945Z,99753.88
2023-03-06T09:48:23.491Z,99750.63
2023-03-06T09:50:52.897Z,99750.44
2023-03-06T09:53:32.438Z,99761.69
2023-03-06T09:56:02.985Z,99758.16
2023-03-06T09:58:33.485Z,99760.16
2023-03-06T10:01:05.618Z,99750.78
2023-03-06T10:03:39.010Z,99764.34
2023-03-06T10:06:11.352Z,99759.91
2023-03-06T10:08:47.686Z,99768.25
2023-03-06T10:11:18.106Z,99766.63
2023-03-06T10:13:47.884Z,99758.94
2023-03-06T10:16:22.664Z,99763.09
2023-03-06T10:18:50.411Z,99757.09
2023-03-06T10:21:29.629Z,99760.28
2023-03-06T10:24:03.145Z,99748.19
2023-03-06T10:26:35.119Z,99759.00
2023-03-06T10:29:16.125Z,99755.09
2023-03-06T10:31:44.624Z,99761.16
2023-03-06T10:34:16.917Z,99746.00
2023-03-06T10:36:44.421Z,99759.59
2023-03-06T10:39:16.171Z,99764.63
2023-03-06T10:41:44.725Z,99765.03
2023-03-06T10:44:23.600Z,99745.31
2023-03-06T10:46:52.612Z,99742.66
2023-03-06T10:49:37.960Z,99746.94
2023-03-06T10:52:06.727Z,99747.78
2023-03-06T10:54:36.807Z,99756.94
2023-03-06T10:57:21.122Z,99760.47
2023-03-06T10:59:52.880Z,99749.06
2023-03-06T11:02:28.320Z,99753.09
2023-03-06T11:04:56.443Z,99745.22
2023-03-06T11:07:25.948Z,99749.00
2023-03-06T11:10:02.922Z,99754.25
2023-03-06T11:12:32.216Z,99736.75
2023-03-06T11:15:11.050Z,99740.56
2023-03-06T11:17:39.534Z,99743.53
2023-03-06T11:20:17.520Z,99748.47
2023-03-06T11:22:49.074Z,99747.66
2023-03-06T11:25:19.423Z,99737.25
2023-03-06T11:27:49.386Z,99737.56
2023-03-06T11:30:19.331Z,99738.13
2023-03-06T11:32:50.302Z,99735.81
2023-03-06T11:35:21.346Z,99732.91
2023-03-06T11:37:53.809Z,99736.59
2023-03-06T11:40:25.577Z,99743.16
2023-03-06T11:42:56.908Z,99749.22
2023-03-06T11:45:28.504Z,99748.06
2023-03-06T11:48:02.014Z,99742.16
2023-03-06T11:50:32.528Z,99733.06
2023-03-06T11:53:01.440Z,99739.31
2023-03-06T11:55:40.415Z,99737.59
2023-03-06T11:58:25.616Z,99732.09
2023-03-06T12:00:55.388Z,99724.59
2023-03-06T12:03:32.458Z,99730.97
2023-03-06T12:06:04.759Z,99726.53
2023-03-06T12:08:40.762Z,99725.25
2023-03-06T12:14:04.121Z,99733.28
2023-03-06T12:16:46.943Z,99735.16
2023-03-06T12:19:21.104Z,99727.63
2023-03-06T12:21:55.710Z,99739.25
2023-03-06T12:24:31.658Z,99745.41
2023-03-06T12:27:06.776Z,99745.56
2023-03-06T12:29:41.932Z,99739.75
2023-03-06T12:32:14.721Z,99735.34
2023-03-06T12:34:51.422Z,99733.34
2023-03-06T12:37:23.286Z,99727.22
2023-03-06T12:39:58.059Z,99736.06
2023-03-06T12:42:42.251Z,99729.09
2023-03-06T12:45:18.474Z,99730.31
2023-03-06T12:47:47.845Z,99730.06
2023-03-06T12:50:20.136Z,99737.44
2023-03-06T12:52:49.162Z,99732.53
2023-03-06T12:55:21.179Z,99736.22
2023-03-06T12:57:52.616Z,99726.38
2023-03-06T13:00:35.120Z,99724.56
2023-03-06T13:03:07.644Z,99732.94
2023-03-06T13:05:39.766Z,99740.31
2023-03-06T13:08:21.875Z,99740.78
2023-03-06T13:11:02.020Z,99737.47
2023-03-06T13:13:32.674Z,99736.63
2023-03-06T13:16:11.164Z,99731.00
2023-03-06T13:18:56.466Z,99737.13
2023-03-06T13:21:42.601Z,99747.81
2023-03-06T13:24:15.279Z,99744.91
2023-03-06T13:26:54.922Z,99737.81
2023-03-06T13:29:49.096Z,99725.16
2023-03-06T13:32:19.791Z,99732.78
2023-03-06T13:34:48.500Z,99727.84
2023-03-06T13:37:34.354Z,99728.22
2023-03-06T13:40:14.530Z,99737.81
2023-03-06T13:42:56.840Z,99741.72
2023-03-06T13:45:25.992Z,99741.22
2023-03-06T13:48:27.347Z,99730.09
2023-03-06T13:50:44.514Z,99725.75
2023-03-06T13:53:24.462Z,99731.84
2023-03-06T13:56:00.897Z,99735.81
2023-03-06T13:58:37.209Z,99738.56
2023-03-06T14:01:22.365Z,99736.91
2023-03-06T14:03:58.287Z,99738.28
2023-03-06T14:06:42.692Z,99741.41
2023-03-06T14:09:14.573Z,99740.34
2023-03-06T14:11:47.011Z,99737.34
2023-03-06T14:14:14.686Z,99729.81
2023-03-06T14:16:50.026Z,99735.53
2023-03-06T14:19:19.965Z,99732.78
2023-03-06T14:21:49.254Z,99742.75
2023-03-06T14:24:17.904Z,99730.53
2023-03-06T14:26:46.770Z,99730.25
2023-03-06T14:29:21.175Z,99736.00
2023-03-06T14:31:50.462Z,99732.22
2023-03-06T14:34:21.582Z,99734.72
2023-03-06T14:36:50.060Z,99735.88
2023-03-06T14:39:21.251Z,99732.97
2023-03-06T14:41:48.778Z,99726.88
2023-03-06T14:44:17.997Z,99730.44
2023-03-06T14:46:46.138Z,99732.16
2023-03-06T14:49:15.112Z,99739.28
2023-03-06T14:51:44.837Z,99737.38
2023-03-06T14:54:15.215Z,99735.44
2023-03-06T14:56:45.910Z,99734.88
2023-03-06T14:59:15.903Z,99732.72
2023-03-06T15:01:45.172Z,99731.38
2023-03-06T15:04:17.493Z,99733.78
2023-03-06T15:06:46.650Z,99724.53
2023-03-06T15:09:15.944Z,99740.28
2023-03-06T15:11:53.409Z,99738.28
2023-03-06T15:14:22.313Z,99741.47
2023-03-06T15:16:49.783Z,99743.53
2023-03-06T15:19:19.177Z,99745.50
2023-03-06T15:21:49.914Z,99742.03
2023-03-06T15:24:31.871Z,99742.47
2023-03-06T15:27:01.268Z,99744.34
2023-03-06T15:29:28.724Z,99738.81
2023-03-06T15:32:11.110Z,99739.59
2023-03-06T15:34:38.631Z,99735.25
2023-03-06T15:37:20.520Z,99736.88
2023-03-06T15:40:01.824Z,99739.84
2023-03-06T15:42:29.342Z,99734.59
2023-03-06T15:44:58.701Z,99733.84
2023-03-06T15:47:26.207Z,99730.09
2023-03-06T15:49:53.873Z,99727.16
2023-03-06T15:52:23.089Z,99729.31
2023-03-06T15:54:50.887Z,99727.16
2023-03-06T15:57:21.436Z,99728.47
2023-03-06T15:59:48.928Z,99730.47
2023-03-06T16:02:17.707Z,99732.84
2023-03-06T16:04:45.630Z,99726.22
2023-03-06T16:07:13.385Z,99721.84
2023-03-06T16:09:42.530Z,99729.38
2023-03-06T16:12:14.462Z,99724.94
2023-03-06T16:14:41.935Z,99721.34
2023-03-06T16:17:11.488Z,99717.50
2023-03-06T16:19:39.050Z,99714.09
2023-03-06T16:22:06.617Z,99706.94
2023-03-06T16:24:34.101Z,99707.13
2023-03-06T16:27:03.474Z,99704.03
2023-03-06T16:29:30.971Z,99710.47
2023-03-06T16:31:59.057Z,99717.38
2023-03-06T16:34:26.798Z,99709.69
2023-03-06T16:36:54.261Z,99714.22
2023-03-06T16:39:23.000Z,99714.13
2023-03-06T16:41:50.960Z,99704.31
2023-03-06T16:44:20.359Z,99703.69
2023-03-06T16:46:48.961Z,99710.66
2023-03-06T16:49:17.768Z,99711.31
2023-03-06T16:51:46.153Z,99707.13
2023-03-06T16:54:14.189Z,99700.25
2023-03-06T16:56:41.764Z,99697.97
2023-03-06T16:59:09.269Z,99702.78
2023-03-06T17:01:38.511Z,99705.66
2023-03-06T17:04:06.077Z,99698.50
2023-03-06T17:06:33.556Z,99704.41
2023-03-06T17:09:01.079Z,99700.81
2023-03-06T17:11:28.767Z,99695.81
2023-03-06T17:13:56.255Z,99695.16
2023-03-06T17:16:23.844Z,99707.41
2023-03-06T17:18:52.745Z,99707.16
2023-03-06T17:21:20.346Z,99709.22
2023-03-06T17:23:47.828Z,99717.50
2023-03-06T17:26:18.044Z,99723.88
2023-03-06T17:28:46.078Z,99724.84
2023-03-06T17:31:14.815Z,99726.63
2023-03-06T17:33:42.740Z,99722.13
2023-03-06T17:36:12.326Z,99721.78
2023-03-06T17:38:39.819Z,99720.63
2023-03-06T17:41:08.144Z,99718.44
2023-03-06T17:43:36.030Z,99714.19
2023-03-06T17:46:04.127Z,99719.25
2023-03-06T17:48:31.581Z,99720.91
2023-03-06T17:50:59.521Z,99720.38
2023-03-06T17:53:28.533Z,99722.47
2023-03-06T17:55:57.893Z,99719.88
2023-03-06T17:58:25.446Z,99718.47
2023-03-06T18:00:52.932Z,99716.91
2023-03-06T18:03:20.421Z,99714.03
2023-03-06T18:05:47.948Z,99712.75
2023-03-06T18:08:15.810Z,99711.44
2023-03-06T18:10:44.666Z,99713.88
2023-03-06T18:13:12.140Z,99716.22
2023-03-06T18:15:40.362Z,99710.91
2023-03-06T18:18:08.252Z,99712.09
2023-03-06T18:20:35.787Z,99714.09
2023-03-06T18:23:03.645Z,99712.38
2023-03-06T18:25:32.263Z,99710.25
2023-03-06T18:28:01.166Z,99713.44
2023-03-06T18:30:28.670Z,99714.16
2023-03-06T18:32:56.166Z,99702.78
2023-03-06T18:35:23.632Z,99704.81
2023-03-06T18:37:52.136Z,99707.53
2023-03-06T18:40:19.871Z,99707.19
2023-03-06T18:42:48.000Z,99707.19
2023-03-06T18:45:16.880Z,99709.19
2023-03-06T18:47:44.325Z,99693.69
2023-03-06T18:50:17.416Z,99703.69
2023-03-06T18:52:44.953Z,99703.47
2023-03-06T18:55:12.830Z,99700.53
2023-03-06T18:57:40.816Z,99701.59
2023-03-06T19:00:08.824Z,99704.53
2023-03-06T19:02:37.690Z,99699.28
2023-03-06T19:05:05.362Z,99699.03
2023-03-06T19:07:32.810Z,99698.22
2023-03-06T19:10:00.304Z,99709.22
2023-03-06T19:12:27.796Z,99703.72
2023-03-06T19:14:55.696Z,99701.50
2023-03-06T19:17:24.968Z,99700.31
2023-03-06T19:19:54.989Z,99690.81
2023-03-06T19:22:23.057Z,99697.38
2023-03-06T19:24:50.694Z,99693.28
2023-03-06T19:27:18.206Z,99694.69
2023-03-06T19:29:45.712Z,99698.44
2023-03-06T19:32:13.349Z,99702.88
2023-03-06T19:34:40.880Z,99693.63
2023-03-06T19:37:09.749Z,99694.56
2023-03-06T19:39:37.233Z,99689.66
2023-03-06T19:42:05.464Z,99685.66
2023-03-06T19:44:32.972Z,99688.94
2023-03-06T19:47:00.416Z,99684.25
2023-03-06T19:49:27.912Z,99688.22
2023-03-06T19:51:55.379Z,99691.50
2023-03-06T19:54:25.431Z,99684.59
2023-03-06T19:56:52.908Z,99682.38
2023-03-06T19:59:20.435Z,99677.81
2023-03-06T20:01:47.919Z,99677.44
2023-03-06T20:04:16.889Z,99682.59
2023-03-06T20:06:45.428Z,99684.00
2023-03-06T20:09:13.163Z,99678.25
2023-03-06T20:11:41.996Z,99682.81
2023-03-06T20:14:09.958Z,99677.19
2023-03-06T20:16:37.563Z,99672.59
2023-03-06T20:19:05.273Z,99669.91
2023-03-06T20:21:35.258Z,99668.13
2023-03-06T20:24:02.753Z,99663.69
2023-03-06T20:26:30.658Z,99673.53
2023-03-06T20:28:59.480Z,99675.06
2023-03-06T20:31:28.102Z,99682.06
2023-03-06T20:33:57.262Z,99677.94
2023-03-06T20:36:26.668Z,99672.09
2023-03-06T20:38:54.177Z,99667.56
2023-03-06T20:41:22.836Z,99666.88
2023-03-06T20:43:50.643Z,99660.53
2023-03-06T20:46:23.796Z,99659.34
2023-03-06T20:48:52.314Z,99662.84
2023-03-06T20:51:21.229Z,99658.03
2023-03-06T20:53:49.474Z,99653.59
2023-03-06T20:56:18.058Z,99650.84
2023-03-06T20:58:45.682Z,99641.13
2023-03-06T21:01:19.976Z,99629.69
2023-03-06T21:03:47.914Z,99635.28
2023-03-06T21:06:15.496Z,99632.22
2023-03-06T21:08:43.025Z,99631.88
2023-03-06T21:11:10.531Z,99634.34
2023-03-06T21:13:38.351Z,99625.75
2023-03-06T21:16:06.652Z,99627.31
2023-03-06T21:18:35.540Z,99629.19
2023-03-06T21:21:05.658Z,99617.38
2023-03-06T21:23:33.120Z,99615.84
2023-03-06T21:26:00.644Z,99618.19
2023-03-06T21:28:28.393Z,99623.81
2023-03-06T21:30:55.909Z,99617.00
2023-03-06T21:33:23.343Z,99608.72
2023-03-06T21:35:52.756Z,99602.97
2023-03-06T21:38:20.240Z,99595.38
2023-03-06T21:40:47.691Z,99599.13
2023-03-06T21:43:17.393Z,99595.38
2023-03-06T21:45:45.059Z,99600.75
2023-03-06T21:48:12.634Z,99596.84
2023-03-06T21:50:40.167Z,99585.94
2023-03-06T21:53:09.489Z,99588.75
2023-03-06T21:55:40.311Z,99592.03
2023-03-06T21:58:08.082Z,99594.44
2023-03-06T22:00:36.482Z,99590.09
2023-03-06T22:03:04.660Z,99584.97
2023-03-06T22:05:32.746Z,99587.19
2023-03-06T22:08:00.237Z,99585.09
2023-03-06T22:10:29.103Z,99592.94
2023-03-06T22:12:56.575Z,99585.09
2023-03-06T22:15:23.996Z,99586.28
2023-03-06T22:17:51.479Z,99582.63
2023-03-06T22:20:19.135Z,99577.50
2023-03-06T22:22:46.575Z,99576.53
2023-03-06T22:25:14.623Z,99567.66
2023-03-06T22:27:43.482Z,99569.03
2023-03-06T22:30:11.571Z,99567.66
2023-03-06T22:32:39.100Z,99560.03
2023-03-06T22:35:06.946Z,99562.59
2023-03-06T22:37:34.470Z,99557.31
2023-03-06T22:40:01.969Z,99552.53
2023-03-06T22:42:29.670Z,99554.41
2023-03-06T22:44:58.469Z,99553.44
2023-03-06T22:47:25.934Z,99548.41
2023-03-06T22:49:53.392Z,99546.75
2023-03-06T22:52:20.882Z,99549.22
2023-03-06T22:54:48.368Z,99540.03
2023-03-06T22:57:15.810Z,99529.53
2023-03-06T22:59:43.222Z,99529.28
2023-03-06T23:02:12.133Z,99521.69
2023-03-06T23:04:39.701Z,99524.03
2023-03-06T23:07:07.499Z,99519.44
2023-03-06T23:09:35.012Z,99513.16
2023-03-06T23:12:02.475Z,99501.50
2023-03-06T23:14:30.055Z,99506.41
2023-03-06T23:16:57.589Z,99508.63
2023-03-06T23:19:26.638Z,99505.03
2023-03-06T23:21:54.121Z,99502.84
2023-03-06T23:24:21.633Z,99500.44
2023-03-06T23:26:49.158Z,99494.06
2023-03-06T23:29:16.666Z,99504.31
2023-03-06T23:31:44.118Z,99506.41
2023-03-06T23:34:12.757Z,99503.47
2023-03-06T23:36:41.664Z,99495.66
2023-03-06T23:39:09.560Z,99492.84
2023-03-06T23:41:36.974Z,99500.94
2023-03-06T23:44:05.031Z,99495.16
2023-03-06T23:46:32.533Z,99490.53
2023-03-06T23:49:00.086Z,99496.34
2023-03-06T23:51:27.646Z,99491.28
2023-03-06T23:53:57.328Z,99484.50
2023-03-06T23:56:25.257Z,99485.88
2023-03-06T23:58:52.743Z,99479.06
